Time;durP1;ratioP1;P1;durP2;ratioP2;P2;SDS_P1;SDS_P2;PMS_P1;PMS_P2;Temp;Humidity;BMP_temperature;BMP_pressure;BME280_temperature;BME280_humidity;BME280_pressure;Samples;Min_cycle;Max_cycle;Signal;HPM_P1;HPM_P2
2023/10/01 00:00:03;;;;;;;53.65;22.33;;;;;;;;;;5135250;28;20051;-70
2023/10/01 00:02:29;;;;;;;66.88;22.55;;;;;;;;;;5099434;28;20047;-69
2023/10/01 00:04:55;;;;;;;67.20;23.25;;;;;;;;;;5116311;28;20078;-70
2023/10/01 00:07:21;;;;;;;65.70;23.03;;;;;;;;;;5135086;28;20046;-69
2023/10/01 00:09:47;;;;;;;60.65;21.98;;;;;;;;;;5134381;28;20670;-70
2023/10/01 00:12:14;;;;;;;57.60;21.60;;;;;;;;;;5134379;27;20039;-69
2023/10/01 00:14:40;;;;;;;60.00;21.33;;;;;;;;;;5138317;27;20047;-70
2023/10/01 00:17:06;;;;;;;59.67;20.92;;;;;;;;;;5120582;27;20051;-70
2023/10/01 00:19:33;;;;;;;56.22;19.92;;;;;;;;;;5116839;27;20050;-69
2023/10/01 00:22:00;;;;;;;55.88;20.02;;;;;;;;;;5143643;27;20091;-70
2023/10/01 00:24:26;;;;;;;48.60;20.10;;;;;;;;;;5138564;27;20483;-70
2023/10/01 00:26:52;;;;;;;58.00;21.50;;;;;;;;;;5103125;27;20394;-70
2023/10/01 00:29:19;;;;;;;54.92;20.05;;;;;;;;;;5139193;27;20107;-70
2023/10/01 00:31:46;;;;;;;58.47;20.55;;;;;;;;;;5120901;27;20047;-69
2023/10/01 00:34:12;;;;;;;57.10;21.13;;;;;;;;;;5120346;27;20058;-70
2023/10/01 00:36:38;;;;;;;57.75;21.35;;;;;;;;;;5138213;27;20149;-69
2023/10/01 00:39:04;;;;;;;49.90;19.40;;;;;;;;;;5137580;27;20518;-69
2023/10/01 00:41:30;;;;;;;58.97;20.92;;;;;;;;;;5138074;27;20066;-70
2023/10/01 00:44:00;;;;;;;55.63;20.43;;;;;;;;;;5138077;27;20050;-69
2023/10/01 00:46:26;;;;;;;51.55;19.75;;;;;;;;;;5137965;27;20444;-70
2023/10/01 00:48:53;;;;;;;47.93;20.10;;;;;;;;;;5102772;27;20364;-71
2023/10/01 00:51:20;;;;;;;54.70;21.05;;;;;;;;;;5120489;27;20103;-69
2023/10/01 00:53:46;;;;;;;61.08;20.73;;;;;;;;;;5120383;27;20089;-69
2023/10/01 00:56:12;;;;;;;55.47;21.15;;;;;;;;;;5137654;27;20490;-70
2023/10/01 00:58:39;;;;;;;59.97;21.45;;;;;;;;;;5119610;27;20051;-70
2023/10/01 01:01:07;;;;;;;53.97;20.35;;;;;;;;;;5119381;27;20051;-70
2023/10/01 01:03:34;;;;;;;53.83;19.65;;;;;;;;;;5137653;27;20047;-70
2023/10/01 01:06:13;;;;;;;55.78;20.55;;;;;;;;;;5137491;27;20043;-69
2023/10/01 01:08:52;;;;;;;54.13;21.02;;;;;;;;;;5137889;27;20439;-70
2023/10/01 01:11:19;;;;;;;50.85;20.85;;;;;;;;;;5137961;27;20055;-69
2023/10/01 01:13:45;;;;;;;53.03;19.40;;;;;;;;;;5137432;27;20043;-70
2023/10/01 01:16:19;;;;;;;56.40;21.27;;;;;;;;;;5137949;27;20050;-70
2023/10/01 01:18:46;;;;;;;55.00;20.48;;;;;;;;;;5118977;27;20047;-70
2023/10/01 01:21:13;;;;;;;52.38;20.92;;;;;;;;;;5137406;27;20049;-70
2023/10/01 01:23:45;;;;;;;57.97;20.60;;;;;;;;;;5102905;27;20107;-70
2023/10/01 01:26:13;;;;;;;55.88;19.95;;;;;;;;;;5119247;27;20051;-70
2023/10/01 01:28:41;;;;;;;55.13;21.00;;;;;;;;;;5137825;27;20039;-69
2023/10/01 01:31:08;;;;;;;50.33;19.67;;;;;;;;;;5148436;27;20047;-70
2023/10/01 01:33:44;;;;;;;48.85;19.23;;;;;;;;;;5128267;27;20057;-70
2023/10/01 01:36:12;;;;;;;46.92;18.88;;;;;;;;;;5138132;27;20451;-69
2023/10/01 01:38:50;;;;;;;48.20;19.15;;;;;;;;;;5119222;27;20083;-71
2023/10/01 01:41:19;;;;;;;49.80;19.08;;;;;;;;;;5119578;27;20096;-69
2023/10/01 01:43:46;;;;;;;;;;;;;;;;;;5137287;27;20059;-69
2023/10/01 01:46:13;;;;;;;49.45;18.77;;;;;;;;;;5137056;27;19989;-69
2023/10/01 01:48:40;;;;;;;60.25;20.17;;;;;;;;;;5118516;27;20069;-69
2023/10/01 01:51:08;;;;;;;50.72;19.25;;;;;;;;;;5137504;27;20055;-70
2023/10/01 01:53:35;;;;;;;49.38;18.80;;;;;;;;;;5118382;27;20047;-70
2023/10/01 01:56:08;;;;;;;52.88;19.08;;;;;;;;;;5118382;27;20053;-69
2023/10/01 01:58:35;;;;;;;47.28;18.75;;;;;;;;;;5119214;27;20043;-70
2023/10/01 02:01:08;;;;;;;53.13;18.75;;;;;;;;;;5136618;27;20104;-68
2023/10/01 02:03:34;;;;;;;49.53;18.95;;;;;;;;;;5136804;27;20116;-69
2023/10/01 02:06:00;;;;;;;56.72;19.30;;;;;;;;;;5137201;27;20039;-69
2023/10/01 02:11:13;;;;;;;54.97;19.45;;;;;;;;;;5136793;27;20107;-70
2023/10/01 02:13:45;;;;;;;54.67;18.77;;;;;;;;;;5136720;27;20068;-68
2023/10/01 02:18:57;;;;;;;49.05;18.35;;;;;;;;;;5136880;27;20050;-69
2023/10/01 02:21:42;;;;;;;58.08;19.92;;;;;;;;;;5136357;27;20279;-69
2023/10/01 02:24:12;;;;;;;54.15;19.13;;;;;;;;;;5136943;27;20062;-68
2023/10/01 02:26:39;;;;;;;55.58;20.38;;;;;;;;;;5136162;27;20093;-69
2023/10/01 02:29:05;;;;;;;;;;;;;;;;;;5101886;27;20039;-69
2023/10/01 02:31:39;;;;;;;50.95;18.77;;;;;;;;;;5136182;27;19927;-70
2023/10/01 02:34:11;;;;;;;51.08;18.50;;;;;;;;;;5118763;27;20082;-70
2023/10/01 02:36:40;;;;;;;58.60;20.25;;;;;;;;;;5136333;27;20051;-69
2023/10/01 02:39:19;;;;;;;56.55;20.10;;;;;;;;;;5143925;27;20050;-70
2023/10/01 02:42:03;;;;;;;57.45;20.08;;;;;;;;;;5134808;27;20043;-68
2023/10/01 02:44:31;;;;;;;58.88;20.67;;;;;;;;;;5136948;27;20082;-69
2023/10/01 02:47:03;;;;;;;54.05;19.73;;;;;;;;;;5136098;27;20391;-69
2023/10/01 02:49:32;;;;;;;62.20;21.05;;;;;;;;;;5136320;27;20043;-69
2023/10/01 02:52:03;;;;;;;52.53;19.55;;;;;;;;;;5135904;27;20051;-69
2023/10/01 02:54:30;;;;;;;60.40;21.00;;;;;;;;;;5136080;27;20050;-69
2023/10/01 02:57:12;;;;;;;;;;;;;;;;;;5135786;27;20042;-69
2023/10/01 03:02:28;;;;;;;56.40;19.45;;;;;;;;;;5135382;27;20047;-69
2023/10/01 03:04:54;;;;;;;60.22;21.15;;;;;;;;;;5135351;27;20047;-70
2023/10/01 03:07:24;;;;;;;60.00;20.45;;;;;;;;;;5135649;27;20046;-71
2023/10/01 03:09:53;;;;;;;50.47;20.38;;;;;;;;;;5135212;27;20134;-69
2023/10/01 03:12:28;;;;;;;61.60;20.95;;;;;;;;;;5135187;27;20100;-69
2023/10/01 03:15:15;;;;;;;59.53;20.30;;;;;;;;;;5117101;27;20493;-69
2023/10/01 03:17:57;;;;;;;63.80;20.00;;;;;;;;;;5135014;27;20375;-69
2023/10/01 03:26:07;;;;;;;65.50;20.38;;;;;;;;;;5117219;27;20383;-69
2023/10/01 03:31:22;;;;;;;59.55;18.70;;;;;;;;;;5135480;27;20082;-69
2023/10/01 03:33:54;;;;;;;60.42;19.08;;;;;;;;;;5135057;27;20146;-68
2023/10/01 03:36:25;;;;;;;63.92;19.73;;;;;;;;;;5117582;27;20047;-69
2023/10/01 03:38:57;;;;;;;63.58;19.63;;;;;;;;;;5135431;27;20047;-69
2023/10/01 03:41:24;;;;;;;61.30;21.08;;;;;;;;;;5135526;27;20055;-70
2023/10/01 03:43:56;;;;;;;57.75;19.73;;;;;;;;;;5116640;27;20054;-69
2023/10/01 03:49:00;;;;;;;54.13;18.77;;;;;;;;;;5148365;27;20039;-70
2023/10/01 03:54:14;;;;;;;52.28;17.75;;;;;;;;;;5135449;28;20047;-70
2023/10/01 03:56:45;;;;;;;55.67;18.38;;;;;;;;;;5116683;28;20043;-69
2023/10/01 03:59:16;;;;;;;54.50;17.83;;;;;;;;;;5116639;28;20126;-69
2023/10/01 04:01:58;;;;;;;52.67;17.73;;;;;;;;;;5135126;28;20087;-70
2023/10/01 04:04:27;;;;;;;59.42;18.17;;;;;;;;;;5135240;28;20383;-69
2023/10/01 04:06:54;;;;;;;51.42;17.08;;;;;;;;;;5134385;28;20116;-69
2023/10/01 04:09:26;;;;;;;57.55;17.27;;;;;;;;;;5134476;28;20112;-69
2023/10/01 04:11:57;;;;;;;57.63;18.08;;;;;;;;;;5134881;28;20078;-69
2023/10/01 04:14:23;;;;;;;52.42;16.58;;;;;;;;;;5116118;28;20078;-68
2023/10/01 04:16:49;;;;;;;52.80;17.20;;;;;;;;;;5116388;28;20043;-69
2023/10/01 04:19:19;;;;;;;54.67;17.27;;;;;;;;;;5134538;28;20406;-70
2023/10/01 04:21:50;;;;;;;47.38;16.88;;;;;;;;;;5116822;28;20043;-70
2023/10/01 04:24:16;;;;;;;54.72;16.95;;;;;;;;;;5134976;28;20058;-70
2023/10/01 04:26:42;;;;;;;51.78;16.70;;;;;;;;;;5115644;28;20047;-69
2023/10/01 04:29:11;;;;;;;;;;;;;;;;;;5116557;28;20039;-69
2023/10/01 04:31:47;;;;;;;45.40;15.73;;;;;;;;;;5115781;28;20306;-69
2023/10/01 04:34:14;;;;;;;53.97;17.92;;;;;;;;;;5117321;28;20047;-69
2023/10/01 04:36:44;;;;;;;52.67;15.95;;;;;;;;;;5135024;28;20425;-70
2023/10/01 04:39:11;;;;;;;55.53;16.58;;;;;;;;;;5134319;28;20424;-69
2023/10/01 04:41:40;;;;;;;45.30;15.23;;;;;;;;;;5134051;28;20043;-69
2023/10/01 04:44:06;;;;;;;50.92;16.20;;;;;;;;;;5134283;28;20055;-68
2023/10/01 04:46:37;;;;;;;48.80;15.60;;;;;;;;;;5116383;28;20043;-69
2023/10/01 04:49:08;;;;;;;53.35;15.95;;;;;;;;;;5134371;28;20478;-69
2023/10/01 04:51:46;;;;;;;51.55;15.45;;;;;;;;;;5134592;28;20047;-69
2023/10/01 04:54:21;;;;;;;48.95;15.63;;;;;;;;;;5134033;28;20054;-69
2023/10/01 04:56:48;;;;;;;50.28;16.27;;;;;;;;;;5134442;28;20505;-69
2023/10/01 04:59:15;;;;;;;;;;;;;;;;;;5136186;27;20043;-69
2023/10/01 05:01:41;;;;;;;61.95;15.57;;;;;;;;;;5137964;27;19942;-68
2023/10/01 05:04:11;;;;;;;45.13;14.02;;;;;;;;;;5102487;27;20066;-68
2023/10/01 05:06:42;;;;;;;45.55;15.00;;;;;;;;;;5137976;27;20047;-70
2023/10/01 05:09:09;;;;;;;45.22;14.93;;;;;;;;;;5102958;27;20079;-69
2023/10/01 05:11:35;;;;;;;48.63;14.85;;;;;;;;;;5119100;27;20120;-69
2023/10/01 05:14:04;;;;;;;50.93;15.53;;;;;;;;;;5137205;27;20053;-70
2023/10/01 05:16:38;;;;;;;45.03;14.15;;;;;;;;;;5119699;27;20039;-69
2023/10/01 05:19:10;;;;;;;41.10;14.38;;;;;;;;;;5137239;27;20051;-70
2023/10/01 05:21:49;;;;;;;44.63;14.43;;;;;;;;;;5137506;27;20047;-70
2023/10/01 05:24:31;;;;;;;51.38;14.70;;;;;;;;;;5137024;27;20058;-70
2023/10/01 05:27:00;;;;;;;55.50;16.17;;;;;;;;;;5137488;27;20089;-70
2023/10/01 05:29:26;;;;;;;51.17;15.77;;;;;;;;;;5136893;27;20047;-70
2023/10/01 05:31:55;;;;;;;62.07;16.17;;;;;;;;;;5118731;27;20073;-70
2023/10/01 05:34:22;;;;;;;50.35;15.45;;;;;;;;;;5136900;27;20141;-69
2023/10/01 05:36:52;;;;;;;48.53;14.27;;;;;;;;;;5137135;27;20066;-70
2023/10/01 05:39:23;;;;;;;47.35;14.98;;;;;;;;;;5119486;27;20054;-69
2023/10/01 05:41:49;;;;;;;51.78;14.88;;;;;;;;;;5136886;27;20058;-69
2023/10/01 05:44:15;;;;;;;51.67;14.55;;;;;;;;;;5101952;27;20047;-70
2023/10/01 05:46:41;;;;;;;50.83;14.93;;;;;;;;;;5137222;27;20085;-70
2023/10/01 05:49:12;;;;;;;52.53;14.93;;;;;;;;;;5136505;27;20043;-69
2023/10/01 05:51:45;;;;;;;49.50;14.27;;;;;;;;;;5118799;27;20078;-69
2023/10/01 05:54:18;;;;;;;46.30;14.40;;;;;;;;;;5118541;27;20126;-70
2023/10/01 05:56:47;;;;;;;50.08;15.80;;;;;;;;;;5119229;27;20055;-69
2023/10/01 05:59:14;;;;;;;48.58;14.73;;;;;;;;;;5136391;27;20046;-69
2023/10/01 06:01:41;;;;;;;55.33;15.75;;;;;;;;;;5118088;27;20047;-69
2023/10/01 06:04:12;;;;;;;47.20;15.23;;;;;;;;;;5102159;27;20550;-69
2023/10/01 06:06:42;;;;;;;52.30;15.43;;;;;;;;;;5119011;27;20047;-70
2023/10/01 06:09:14;;;;;;;49.53;15.38;;;;;;;;;;5137961;27;20425;-69
2023/10/01 06:12:03;;;;;;;57.35;15.45;;;;;;;;;;5117116;27;20039;-70
2023/10/01 06:14:36;;;;;;;53.33;14.90;;;;;;;;;;5136647;27;20447;-70
2023/10/01 06:17:04;;;;;;;47.88;13.45;;;;;;;;;;5136051;27;20497;-70
2023/10/01 06:19:34;;;;;;;50.25;14.73;;;;;;;;;;5117779;27;20092;-69
2023/10/01 06:22:13;;;;;;;53.10;15.13;;;;;;;;;;5136036;27;20089;-69
2023/10/01 06:24:46;;;;;;;50.03;15.07;;;;;;;;;;5136491;27;20050;-69
2023/10/01 06:27:12;;;;;;;57.75;14.85;;;;;;;;;;5135708;27;20043;-70
2023/10/01 06:29:51;;;;;;;47.83;14.30;;;;;;;;;;5136454;27;20066;-70
2023/10/01 06:32:20;;;;;;;49.90;14.13;;;;;;;;;;5118383;27;20047;-70
2023/10/01 06:34:49;;;;;;;47.40;13.25;;;;;;;;;;5117926;27;20084;-70
2023/10/01 06:37:15;;;;;;;45.53;13.80;;;;;;;;;;5117042;27;20070;-70
2023/10/01 06:39:43;;;;;;;45.13;13.23;;;;;;;;;;5117262;27;20086;-69
2023/10/01 06:42:18;;;;;;;46.85;13.02;;;;;;;;;;5136071;27;20383;-69
2023/10/01 06:44:49;;;;;;;48.55;12.80;;;;;;;;;;5135404;27;20043;-70
2023/10/01 06:47:16;;;;;;;45.45;13.15;;;;;;;;;;5135484;27;20039;-69
2023/10/01 06:49:57;;;;;;;43.05;11.95;;;;;;;;;;5100174;27;20047;-69
2023/10/01 06:52:34;;;;;;;55.63;12.95;;;;;;;;;;5136144;27;20043;-69
2023/10/01 06:55:01;;;;;;;53.38;13.55;;;;;;;;;;5135815;27;20051;-69
2023/10/01 06:57:28;;;;;;;46.60;13.43;;;;;;;;;;5117414;27;20069;-69
2023/10/01 06:59:56;;;;;;;47.53;12.77;;;;;;;;;;5135700;27;20153;-70
2023/10/01 07:02:25;;;;;;;49.72;12.88;;;;;;;;;;5135110;27;20078;-70
2023/10/01 07:05:00;;;;;;;46.80;12.00;;;;;;;;;;5117374;27;20467;-70
2023/10/01 07:07:28;;;;;;;42.40;12.13;;;;;;;;;;5135556;27;20079;-70
2023/10/01 07:10:00;;;;;;;39.30;11.35;;;;;;;;;;5135045;27;20491;-69
2023/10/01 07:12:26;;;;;;;41.08;11.90;;;;;;;;;;5135436;27;20055;-70
2023/10/01 07:14:52;;;;;;;40.13;11.40;;;;;;;;;;5134966;27;20126;-68
2023/10/01 07:17:23;;;;;;;44.33;12.77;;;;;;;;;;5117303;27;20054;-70
2023/10/01 07:20:18;;;;;;;38.55;11.75;;;;;;;;;;5135829;27;20119;-70
2023/10/01 07:22:44;;;;;;;41.60;11.93;;;;;;;;;;5116827;27;20387;-70
2023/10/01 07:25:28;;;;;;;41.43;11.60;;;;;;;;;;5134610;27;20047;-70
2023/10/01 07:27:57;;;;;;;41.88;11.27;;;;;;;;;;5117182;27;20308;-70
2023/10/01 07:30:39;;;;;;;40.72;11.73;;;;;;;;;;5134519;27;20050;-70
2023/10/01 07:33:12;;;;;;;42.92;11.73;;;;;;;;;;5117081;27;20455;-71
2023/10/01 07:35:44;;;;;;;45.05;11.82;;;;;;;;;;5134371;27;20055;-69
2023/10/01 07:38:10;;;;;;;41.15;11.13;;;;;;;;;;5134335;27;20051;-70
2023/10/01 07:43:39;;;;;;;48.88;11.48;;;;;;;;;;5074595;28;20064;-70
2023/10/01 07:46:07;;;;;;;44.65;12.02;;;;;;;;;;5107239;27;20051;-70
2023/10/01 07:48:35;;;;;;;47.30;11.40;;;;;;;;;;5115865;27;20047;-70
2023/10/01 07:51:05;;;;;;;38.92;11.57;;;;;;;;;;5116005;27;20130;-71
2023/10/01 07:53:34;;;;;;;42.42;11.40;;;;;;;;;;5134169;27;20154;-70
2023/10/01 07:56:02;;;;;;;44.60;11.40;;;;;;;;;;5115839;28;20135;-71
2023/10/01 08:01:42;;;;;;;39.85;10.65;;;;;;;;;;5100261;28;20133;-71
2023/10/01 08:04:38;;;;;;;42.72;12.20;;;;;;;;;;5134843;28;20055;-69
2023/10/01 08:07:05;;;;;;;48.90;11.57;;;;;;;;;;5134306;28;20153;-71
2023/10/01 08:09:32;;;;;;;45.95;11.60;;;;;;;;;;5101183;28;20050;-72
2023/10/01 08:11:58;;;;;;;;;;;;;;;;;;5134546;28;20051;-70
2023/10/01 08:14:33;;;;;;;47.65;12.45;;;;;;;;;;5134096;28;20015;-71
2023/10/01 08:17:00;;;;;;;51.50;12.45;;;;;;;;;;5115703;28;20047;-70
2023/10/01 08:19:44;;;;;;;42.95;11.35;;;;;;;;;;5134003;28;20076;-70
2023/10/01 08:22:13;;;;;;;51.47;12.70;;;;;;;;;;5099639;28;20051;-70
2023/10/01 08:24:45;;;;;;;50.95;11.90;;;;;;;;;;5115779;28;20082;-69
2023/10/01 08:27:31;;;;;;;51.38;12.82;;;;;;;;;;5133858;28;20043;-70
2023/10/01 08:32:49;;;;;;;43.60;12.13;;;;;;;;;;5133954;28;20047;-71
2023/10/01 08:35:33;;;;;;;42.65;12.00;;;;;;;;;;5137352;27;20078;-69
2023/10/01 08:38:02;;;;;;;48.45;12.48;;;;;;;;;;5120172;27;20047;-69
2023/10/01 08:40:28;;;;;;;46.15;11.75;;;;;;;;;;5138536;27;20122;-69
2023/10/01 08:42:58;;;;;;;50.03;12.37;;;;;;;;;;5102774;27;20431;-69
2023/10/01 08:45:37;;;;;;;42.92;11.90;;;;;;;;;;5137791;27;20276;-70
2023/10/01 08:48:03;;;;;;;47.58;11.88;;;;;;;;;;5138059;27;20447;-70
2023/10/01 08:50:36;;;;;;;47.78;12.70;;;;;;;;;;5120027;27;20046;-69
2023/10/01 08:53:10;;;;;;;49.80;11.90;;;;;;;;;;5120246;27;20055;-70
2023/10/01 08:55:39;;;;;;;47.95;12.57;;;;;;;;;;5137727;27;20058;-70
2023/10/01 09:00:51;;;;;;;48.22;12.23;;;;;;;;;;5137554;27;20185;-69
2023/10/01 09:03:30;;;;;;;42.80;12.15;;;;;;;;;;5137318;27;20051;-69
2023/10/01 09:06:24;;;;;;;44.80;11.60;;;;;;;;;;5119526;27;20047;-70
2023/10/01 09:08:54;;;;;;;44.92;11.50;;;;;;;;;;5123670;27;20043;-71
2023/10/01 09:11:33;;;;;;;42.20;10.13;;;;;;;;;;5137654;27;20147;-70
2023/10/01 09:14:25;;;;;;;51.90;11.23;;;;;;;;;;5137871;27;20051;-70
2023/10/01 09:16:49;;;;;;;52.70;11.98;;;;;;;;;;5119018;27;20047;-70
2023/10/01 09:19:33;;;;;;;45.67;11.70;;;;;;;;;;5137341;27;20051;-71
2023/10/01 09:22:08;;;;;;;48.00;11.77;;;;;;;;;;5137581;27;20070;-70
2023/10/01 09:24:38;;;;;;;44.70;11.52;;;;;;;;;;5136770;27;20213;-70
2023/10/01 09:27:21;;;;;;;42.28;11.57;;;;;;;;;;5136570;27;20047;-70
2023/10/01 09:30:23;;;;;;;52.05;11.25;;;;;;;;;;5118520;27;20047;-70
2023/10/01 09:32:52;;;;;;;54.17;11.75;;;;;;;;;;5136888;27;20051;-71
2023/10/01 09:35:30;;;;;;;50.58;11.95;;;;;;;;;;5136285;27;20452;-71
2023/10/01 09:38:09;;;;;;;54.53;12.45;;;;;;;;;;5137495;27;20051;-71
2023/10/01 09:40:38;;;;;;;47.50;11.73;;;;;;;;;;5118935;27;20172;-70
2023/10/01 09:43:04;;;;;;;44.05;10.80;;;;;;;;;;5101563;27;20125;-70
2023/10/01 09:45:37;;;;;;;49.80;11.52;;;;;;;;;;5135254;27;20123;-70
2023/10/01 09:48:09;;;;;;;58.30;12.80;;;;;;;;;;5136406;27;20042;-70
2023/10/01 09:50:42;;;;;;;52.20;12.10;;;;;;;;;;5136549;27;20057;-73
2023/10/01 09:53:14;;;;;;;53.55;12.90;;;;;;;;;;5137141;27;20050;-70
2023/10/01 09:55:47;;;;;;;51.80;12.75;;;;;;;;;;5136418;27;20039;-71
2023/10/01 09:58:26;;;;;;;57.60;12.88;;;;;;;;;;5119209;27;20059;-70
2023/10/01 10:00:53;;;;;;;52.63;12.90;;;;;;;;;;5118795;27;20100;-70
2023/10/01 10:03:19;;;;;;;45.63;12.85;;;;;;;;;;5101258;27;20104;-70
2023/10/01 10:05:46;;;;;;;54.25;12.63;;;;;;;;;;5136078;27;20057;-71
2023/10/01 10:08:15;;;;;;;52.28;12.60;;;;;;;;;;5136206;27;20035;-71
2023/10/01 10:10:55;;;;;;;52.17;12.35;;;;;;;;;;5118317;27;20043;-70
2023/10/01 10:13:38;;;;;;;59.33;12.73;;;;;;;;;;5136182;27;20046;-71
2023/10/01 10:19:05;;;;;;;54.33;13.25;;;;;;;;;;5136048;27;20130;-70
2023/10/01 10:21:49;;;;;;;54.10;14.07;;;;;;;;;;5136514;27;20051;-70
2023/10/01 10:24:28;;;;;;;55.95;13.82;;;;;;;;;;5135875;27;20046;-70
2023/10/01 10:27:04;;;;;;;62.95;15.52;;;;;;;;;;5117666;27;20043;-70
2023/10/01 10:29:57;;;;;;;69.07;17.20;;;;;;;;;;5117315;27;20130;-69
2023/10/01 10:32:26;;;;;;;62.35;16.50;;;;;;;;;;5117235;27;20394;-70
2023/10/01 10:35:14;;;;;;;62.22;16.42;;;;;;;;;;5136670;27;20061;-70
2023/10/01 10:37:45;;;;;;;62.20;16.20;;;;;;;;;;5136413;27;20429;-71
2023/10/01 10:43:04;;;;;;;69.00;15.95;;;;;;;;;;5135528;27;20051;-71
2023/10/01 10:45:42;;;;;;;52.75;14.63;;;;;;;;;;5135795;27;20077;-70
2023/10/01 10:48:16;;;;;;;62.53;15.13;;;;;;;;;;5135550;27;20122;-70
2023/10/01 10:50:48;;;;;;;58.17;15.07;;;;;;;;;;5135263;27;20130;-70
2023/10/01 10:53:19;;;;;;;58.83;15.10;;;;;;;;;;5135699;27;20050;-70
2023/10/01 10:55:54;;;;;;;56.35;14.77;;;;;;;;;;5135202;27;20047;-70
2023/10/01 10:58:22;;;;;;;61.78;15.80;;;;;;;;;;5134714;27;20039;-75
2023/10/01 11:00:48;;;;;;;65.60;14.95;;;;;;;;;;5116911;27;20174;-70
2023/10/01 11:03:16;;;;;;;68.63;14.93;;;;;;;;;;5117294;27;20080;-70
2023/10/01 11:05:52;;;;;;;53.97;14.13;;;;;;;;;;5134972;27;20103;-72
2023/10/01 11:08:28;;;;;;;60.65;14.93;;;;;;;;;;5135238;27;20428;-70
2023/10/01 11:10:55;;;;;;;53.30;13.15;;;;;;;;;;5117707;27;20080;-70
2023/10/01 11:13:45;;;;;;;60.80;13.23;;;;;;;;;;5116627;27;20051;-71
2023/10/01 11:16:15;;;;;;;56.53;12.85;;;;;;;;;;5135699;27;20087;-74
2023/10/01 11:18:45;;;;;;;56.28;13.30;;;;;;;;;;5116652;27;20058;-71
2023/10/01 11:21:20;;;;;;;54.83;12.68;;;;;;;;;;5117415;27;20050;-71
2023/10/01 11:23:55;;;;;;;48.22;12.18;;;;;;;;;;5135306;27;20051;-70
2023/10/01 11:26:29;;;;;;;55.42;11.68;;;;;;;;;;5134810;27;20043;-70
2023/10/01 11:29:01;;;;;;;49.70;11.55;;;;;;;;;;5134574;27;20064;-70
2023/10/01 11:31:31;;;;;;;51.40;12.18;;;;;;;;;;5134719;27;20083;-70
2023/10/01 11:33:58;;;;;;;53.55;11.65;;;;;;;;;;5134312;27;20552;-71
2023/10/01 11:36:24;;;;;;;53.42;11.25;;;;;;;;;;5134617;27;20395;-72
2023/10/01 11:38:50;;;;;;;53.58;11.90;;;;;;;;;;5116849;27;20354;-70
2023/10/01 11:41:38;;;;;;;56.35;12.52;;;;;;;;;;5116654;27;20505;-71
2023/10/01 11:44:03;;;;;;;54.42;12.50;;;;;;;;;;5116377;27;20042;-71
2023/10/01 11:46:32;;;;;;;;;;;;;;;;;;5135549;27;20051;-70
2023/10/01 11:49:08;;;;;;;49.35;11.98;;;;;;;;;;5116089;27;19923;-70
2023/10/01 11:51:38;;;;;;;52.88;12.32;;;;;;;;;;5116182;27;20047;-70
2023/10/01 11:54:11;;;;;;;50.10;12.05;;;;;;;;;;5134477;27;20156;-71
2023/10/01 11:56:42;;;;;;;53.08;11.57;;;;;;;;;;5134805;27;20091;-72
2023/10/01 11:59:10;;;;;;;53.97;9.55;;;;;;;;;;5116432;27;20483;-69
2023/10/01 12:01:45;;;;;;;45.88;11.15;;;;;;;;;;5134307;27;20103;-70
2023/10/01 12:04:11;;;;;;;49.83;10.95;;;;;;;;;;5115893;28;20057;-71
2023/10/01 12:06:38;;;;;;;52.00;11.50;;;;;;;;;;5116367;28;20043;-72
2023/10/01 12:09:04;;;;;;;54.42;12.85;;;;;;;;;;5135666;27;20047;-74
2023/10/01 12:11:31;;;;;;;53.45;10.43;;;;;;;;;;5138221;27;20548;-71
2023/10/01 12:14:08;;;;;;;;;;;;;;;;;;5120327;27;20058;-69
2023/10/01 12:16:36;;;;;;;51.17;10.73;;;;;;;;;;5138555;27;20394;-70
2023/10/01 12:21:48;;;;;;;57.67;10.45;;;;;;;;;;5138331;27;20088;-72
2023/10/01 12:24:18;;;;;;;44.05;9.30;;;;;;;;;;5120645;27;20371;-73
2023/10/01 12:26:45;;;;;;;46.83;9.52;;;;;;;;;;5120599;27;20477;-70
2023/10/01 12:29:14;;;;;;;41.47;8.32;;;;;;;;;;5119715;27;20134;-74
2023/10/01 12:31:48;;;;;;;41.92;9.43;;;;;;;;;;5138113;27;20043;-72
2023/10/01 12:34:16;;;;;;;38.83;9.02;;;;;;;;;;5138160;27;20039;-72
2023/10/01 12:36:46;;;;;;;42.55;9.00;;;;;;;;;;5119404;27;20081;-70
2023/10/01 12:41:56;;;;;;;45.38;9.82;;;;;;;;;;5138129;27;20474;-69
2023/10/01 12:44:28;;;;;;;41.28;10.10;;;;;;;;;;5120689;27;20047;-70
2023/10/01 12:46:55;;;;;;;46.38;11.20;;;;;;;;;;5137631;27;20047;-70
2023/10/01 12:49:21;;;;;;;48.40;10.23;;;;;;;;;;5119016;27;20054;-72
2023/10/01 12:51:54;;;;;;;42.47;9.27;;;;;;;;;;5137785;27;20112;-69
2023/10/01 12:54:25;;;;;;;50.35;10.45;;;;;;;;;;5137957;27;20547;-74
2023/10/01 12:57:12;;;;;;;32.20;8.40;;;;;;;;;;5137948;27;20054;-70
2023/10/01 12:59:40;;;;;;;40.67;8.38;;;;;;;;;;5137950;27;20433;-70
2023/10/01 13:02:28;;;;;;;40.88;9.30;;;;;;;;;;5137519;27;20047;-70
2023/10/01 13:05:16;;;;;;;39.95;9.00;;;;;;;;;;5137494;27;20130;-69
2023/10/01 13:07:50;;;;;;;39.35;9.73;;;;;;;;;;5137740;27;20460;-70
2023/10/01 13:10:18;;;;;;;34.88;8.18;;;;;;;;;;5137270;27;20047;-70
2023/10/01 13:12:59;;;;;;;44.20;9.45;;;;;;;;;;5137286;27;20383;-69
2023/10/01 13:15:37;;;;;;;43.65;8.82;;;;;;;;;;5118944;27;20079;-70
2023/10/01 13:18:11;;;;;;;37.63;8.73;;;;;;;;;;5137251;27;20079;-69
2023/10/01 13:23:41;;;;;;;39.38;8.55;;;;;;;;;;5101154;27;20047;-70
2023/10/01 13:26:24;;;;;;;37.00;9.05;;;;;;;;;;5137658;27;20039;-70
2023/10/01 13:28:51;;;;;;;33.70;8.23;;;;;;;;;;5137081;27;20479;-70
2023/10/01 13:33:56;;;;;;;44.15;8.75;;;;;;;;;;5137257;27;20058;-71
2023/10/01 13:36:35;;;;;;;37.40;8.70;;;;;;;;;;5136879;27;20117;-72
2023/10/01 14:08:50;;;;;;;39.13;8.43;;;;;;;;;;5136958;27;20082;-70
2023/10/01 14:11:17;;;;;;;;;;;;;;;;;;5136490;27;20047;-70
2023/10/01 14:13:44;;;;;;;35.20;8.77;;;;;;;;;;5136218;27;20268;-70
2023/10/01 14:16:17;;;;;;;34.47;7.45;;;;;;;;;;5118003;27;20078;-73
2023/10/01 14:19:13;;;;;;;39.53;9.07;;;;;;;;;;5136213;27;20047;-70
2023/10/01 14:21:40;;;;;;;38.92;9.07;;;;;;;;;;5118202;27;20440;-72
2023/10/01 14:24:23;;;;;;;39.20;8.80;;;;;;;;;;5136090;27;20534;-70
2023/10/01 14:26:50;;;;;;;39.63;8.65;;;;;;;;;;5136103;27;20538;-72
2023/10/01 14:29:22;;;;;;;38.47;9.63;;;;;;;;;;5135721;27;20079;-71
2023/10/01 14:31:54;;;;;;;38.08;9.73;;;;;;;;;;5118205;27;20097;-70
2023/10/01 14:34:21;;;;;;;41.60;9.93;;;;;;;;;;5136216;27;20100;-70
2023/10/01 14:36:51;;;;;;;34.40;9.10;;;;;;;;;;5117354;27;20059;-72
2023/10/01 14:39:18;;;;;;;41.83;9.27;;;;;;;;;;5136135;27;20126;-68
2023/10/01 14:41:45;;;;;;;41.17;9.43;;;;;;;;;;5117310;27;20502;-69
2023/10/01 14:44:14;;;;;;;37.15;9.60;;;;;;;;;;5117408;27;20047;-70
2023/10/01 14:46:47;;;;;;;37.30;9.52;;;;;;;;;;5118149;27;20051;-70
2023/10/01 14:49:17;;;;;;;46.03;9.85;;;;;;;;;;5135225;27;20060;-70
2023/10/01 14:51:48;;;;;;;40.13;9.13;;;;;;;;;;5136206;27;20050;-70
2023/10/01 14:54:18;;;;;;;40.88;9.75;;;;;;;;;;5136098;27;20089;-71
2023/10/01 14:56:47;;;;;;;40.42;9.07;;;;;;;;;;5117347;27;20100;-71
2023/10/01 14:59:14;;;;;;;41.53;9.15;;;;;;;;;;5117524;27;20185;-70
2023/10/01 15:01:41;;;;;;;37.47;8.65;;;;;;;;;;5117185;27;20070;-70
2023/10/01 15:04:29;;;;;;;39.85;9.73;;;;;;;;;;5100111;27;20043;-70
2023/10/01 15:07:00;;;;;;;38.05;9.60;;;;;;;;;;5117448;27;20066;-69
2023/10/01 15:09:27;;;;;;;37.28;10.00;;;;;;;;;;5117827;27;20047;-70
2023/10/01 15:11:57;;;;;;;42.05;10.05;;;;;;;;;;5116875;27;20082;-70
2023/10/01 15:14:26;;;;;;;38.45;10.60;;;;;;;;;;5117685;27;20081;-70
2023/10/01 15:16:59;;;;;;;43.10;11.13;;;;;;;;;;5135185;27;20097;-71
2023/10/01 15:19:25;;;;;;;39.70;10.43;;;;;;;;;;5117507;27;20046;-70
2023/10/01 15:22:02;;;;;;;38.85;10.10;;;;;;;;;;5117499;27;20082;-69
2023/10/01 15:24:29;;;;;;;40.20;10.75;;;;;;;;;;5135361;27;20076;-70
2023/10/01 15:26:59;;;;;;;50.92;12.00;;;;;;;;;;5134766;27;20054;-71
2023/10/01 15:29:31;;;;;;;50.95;12.80;;;;;;;;;;5134461;27;20054;-71
2023/10/01 15:31:59;;;;;;;54.42;14.00;;;;;;;;;;5134850;27;20050;-70
2023/10/01 15:34:27;;;;;;;50.28;13.38;;;;;;;;;;5134842;27;20076;-69
2023/10/01 15:37:02;;;;;;;49.97;12.13;;;;;;;;;;5134252;27;20085;-69
2023/10/01 15:42:22;;;;;;;51.85;12.65;;;;;;;;;;5134644;27;20073;-71
2023/10/01 15:44:59;;;;;;;51.40;13.02;;;;;;;;;;5134604;27;20113;-69
2023/10/01 15:47:45;;;;;;;57.33;13.27;;;;;;;;;;5116883;27;20077;-69
2023/10/01 15:50:12;;;;;;;61.67;13.93;;;;;;;;;;5135049;27;20136;-69
2023/10/01 15:52:49;;;;;;;56.78;14.70;;;;;;;;;;5134430;27;20087;-69
2023/10/01 15:55:22;;;;;;;50.85;13.57;;;;;;;;;;5100420;27;20043;-69
2023/10/01 15:58:01;;;;;;;54.05;12.95;;;;;;;;;;5134952;27;20049;-71
2023/10/01 16:00:27;;;;;;;52.83;13.30;;;;;;;;;;5116549;27;20126;-70
2023/10/01 16:03:06;;;;;;;50.53;13.18;;;;;;;;;;5116411;28;20043;-70
2023/10/01 16:05:42;;;;;;;50.60;12.93;;;;;;;;;;5134660;28;20040;-70
2023/10/01 16:08:22;;;;;;;50.50;13.82;;;;;;;;;;5116543;28;20047;-70